sensor_id;sensor_type;location;lat;lon;timestamp;temperature;humidity
71184;DHT22;58887;51.980;4.464;2023-07-31T00:01:44;17.80;88.33
71184;DHT22;58887;51.980;4.464;2023-07-31T00:04:12;17.80;88.69
71184;DHT22;58887;51.980;4.464;2023-07-31T00:06:38;17.74;88.69
71184;DHT22;58887;51.980;4.464;2023-07-31T00:09:05;17.69;88.69
71184;DHT22;58887;51.980;4.464;2023-07-31T00:11:30;17.74;88.74
71184;DHT22;58887;51.980;4.464;2023-07-31T00:13:56;17.69;88.60
71184;DHT22;58887;51.980;4.464;2023-07-31T00:16:21;17.63;88.85
71184;DHT22;58887;51.980;4.464;2023-07-31T00:18:47;17.59;89.21
71184;DHT22;58887;51.980;4.464;2023-07-31T00:21:13;17.63;89.18
71184;DHT22;58887;51.980;4.464;2023-07-31T00:23:39;17.61;89.11
71184;DHT22;58887;51.980;4.464;2023-07-31T00:26:05;17.64;89.01
71184;DHT22;58887;51.980;4.464;2023-07-31T00:28:32;17.57;88.91
71184;DHT22;58887;51.980;4.464;2023-07-31T00:30:58;17.60;89.08
71184;DHT22;58887;51.980;4.464;2023-07-31T00:33:31;17.51;89.21
71184;DHT22;58887;51.980;4.464;2023-07-31T00:35:58;17.53;89.27
71184;DHT22;58887;51.980;4.464;2023-07-31T00:38:24;17.55;89.63
71184;DHT22;58887;51.980;4.464;2023-07-31T00:40:49;17.39;89.79
71184;DHT22;58887;51.980;4.464;2023-07-31T00:43:18;17.43;89.60
71184;DHT22;58887;51.980;4.464;2023-07-31T00:45:52;17.44;89.52
71184;DHT22;58887;51.980;4.464;2023-07-31T00:48:23;17.50;89.67
71184;DHT22;58887;51.980;4.464;2023-07-31T00:50:50;17.50;89.43
71184;DHT22;58887;51.980;4.464;2023-07-31T00:53:16;17.40;89.25
71184;DHT22;58887;51.980;4.464;2023-07-31T00:55:44;17.39;89.32
71184;DHT22;58887;51.980;4.464;2023-07-31T00:58:10;17.46;89.23
71184;DHT22;58887;51.980;4.464;2023-07-31T01:00:35;17.44;89.40
71184;DHT22;58887;51.980;4.464;2023-07-31T01:03:01;17.29;89.39
71184;DHT22;58887;51.980;4.464;2023-07-31T01:06:05;17.23;89.27
71184;DHT22;58887;51.980;4.464;2023-07-31T01:08:54;17.10;89.61
71184;DHT22;58887;51.980;4.464;2023-07-31T01:11:29;17.16;90.08
71184;DHT22;58887;51.980;4.464;2023-07-31T01:14:03;17.19;89.70
71184;DHT22;58887;51.980;4.464;2023-07-31T01:16:30;17.27;89.69
71184;DHT22;58887;51.980;4.464;2023-07-31T01:18:55;17.40;89.42
71184;DHT22;58887;51.980;4.464;2023-07-31T01:26:45;17.44;89.15
71184;DHT22;58887;51.980;4.464;2023-07-31T01:29:49;17.54;88.86
71184;DHT22;58887;51.980;4.464;2023-07-31T01:32:18;17.59;88.69
71184;DHT22;58887;51.980;4.464;2023-07-31T01:34:46;17.64;88.24
71184;DHT22;58887;51.980;4.464;2023-07-31T01:37:13;17.54;88.00
71184;DHT22;58887;51.980;4.464;2023-07-31T01:39:40;17.51;88.12
71184;DHT22;58887;51.980;4.464;2023-07-31T01:42:06;17.63;87.70
71184;DHT22;58887;51.980;4.464;2023-07-31T01:44:32;17.55;87.85
71184;DHT22;58887;51.980;4.464;2023-07-31T01:47:01;17.53;87.57
71184;DHT22;58887;51.980;4.464;2023-07-31T01:49:26;17.60;87.50
71184;DHT22;58887;51.980;4.464;2023-07-31T01:51:57;17.69;87.13
71184;DHT22;58887;51.980;4.464;2023-07-31T01:54:24;17.60;87.34
71184;DHT22;58887;51.980;4.464;2023-07-31T01:56:49;17.53;87.44
71184;DHT22;58887;51.980;4.464;2023-07-31T01:59:16;17.64;87.38
71184;DHT22;58887;51.980;4.464;2023-07-31T02:01:47;17.61;87.08
71184;DHT22;58887;51.980;4.464;2023-07-31T02:04:21;17.67;87.16
71184;DHT22;58887;51.980;4.464;2023-07-31T02:06:46;17.71;86.72
71184;DHT22;58887;51.980;4.464;2023-07-31T02:09:15;17.71;86.69
71184;DHT22;58887;51.980;4.464;2023-07-31T02:11:41;17.70;86.70
71184;DHT22;58887;51.980;4.464;2023-07-31T02:14:08;17.75;86.23
71184;DHT22;58887;51.980;4.464;2023-07-31T02:16:39;17.75;86.03
71184;DHT22;58887;51.980;4.464;2023-07-31T02:19:04;17.81;85.97
71184;DHT22;58887;51.980;4.464;2023-07-31T02:21:32;17.84;85.45
71184;DHT22;58887;51.980;4.464;2023-07-31T02:24:01;17.80;85.69
71184;DHT22;58887;51.980;4.464;2023-07-31T02:26:28;17.75;85.56
71184;DHT22;58887;51.980;4.464;2023-07-31T02:28:53;17.77;85.56
71184;DHT22;58887;51.980;4.464;2023-07-31T02:31:19;17.78;85.28
71184;DHT22;58887;51.980;4.464;2023-07-31T02:33:53;17.81;85.03
71184;DHT22;58887;51.980;4.464;2023-07-31T02:36:20;17.85;84.65
71184;DHT22;58887;51.980;4.464;2023-07-31T02:38:52;17.77;84.67
71184;DHT22;58887;51.980;4.464;2023-07-31T02:41:19;17.71;84.43
71184;DHT22;58887;51.980;4.464;2023-07-31T02:43:45;17.69;84.35
71184;DHT22;58887;51.980;4.464;2023-07-31T02:46:20;17.69;84.12
71184;DHT22;58887;51.980;4.464;2023-07-31T02:48:49;17.67;84.25
71184;DHT22;58887;51.980;4.464;2023-07-31T02:51:17;17.57;84.41
71184;DHT22;58887;51.980;4.464;2023-07-31T02:53:42;17.71;84.01
71184;DHT22;58887;51.980;4.464;2023-07-31T02:56:10;17.73;83.91
71184;DHT22;58887;51.980;4.464;2023-07-31T02:58:36;17.78;84.19
71184;DHT22;58887;51.980;4.464;2023-07-31T03:01:02;17.69;84.35
71184;DHT22;58887;51.980;4.464;2023-07-31T03:04:48;17.81;84.05
71184;DHT22;58887;51.980;4.464;2023-07-31T03:07:19;17.81;83.63
71184;DHT22;58887;51.980;4.464;2023-07-31T03:09:45;17.77;84.03
71184;DHT22;58887;51.980;4.464;2023-07-31T03:12:11;17.80;83.76
71184;DHT22;58887;51.980;4.464;2023-07-31T03:14:37;17.91;83.46
71184;DHT22;58887;51.980;4.464;2023-07-31T03:17:12;17.91;83.32
71184;DHT22;58887;51.980;4.464;2023-07-31T03:19:38;17.88;83.32
71184;DHT22;58887;51.980;4.464;2023-07-31T03:22:04;17.90;83.42
71184;DHT22;58887;51.980;4.464;2023-07-31T03:24:29;17.98;83.18
71184;DHT22;58887;51.980;4.464;2023-07-31T03:26:57;18.00;83.30
71184;DHT22;58887;51.980;4.464;2023-07-31T03:29:23;17.84;83.82
71184;DHT22;58887;51.980;4.464;2023-07-31T03:31:49;17.77;84.15
71184;DHT22;58887;51.980;4.464;2023-07-31T03:34:14;17.88;84.12
71184;DHT22;58887;51.980;4.464;2023-07-31T03:36:40;17.90;84.55
71184;DHT22;58887;51.980;4.464;2023-07-31T03:39:07;17.77;85.18
71184;DHT22;58887;51.980;4.464;2023-07-31T03:41:35;17.71;85.73
71184;DHT22;58887;51.980;4.464;2023-07-31T03:44:00;17.61;86.69
71184;DHT22;58887;51.980;4.464;2023-07-31T03:46:29;17.47;87.44
71184;DHT22;58887;51.980;4.464;2023-07-31T03:49:03;17.51;87.65
71184;DHT22;58887;51.980;4.464;2023-07-31T03:51:28;17.41;88.17
71184;DHT22;58887;51.980;4.464;2023-07-31T03:53:54;17.49;88.28
71184;DHT22;58887;51.980;4.464;2023-07-31T03:56:23;17.34;88.60
71184;DHT22;58887;51.980;4.464;2023-07-31T03:58:48;17.27;88.73
71184;DHT22;58887;51.980;4.464;2023-07-31T04:01:14;17.27;88.99
71184;DHT22;58887;51.980;4.464;2023-07-31T04:03:41;17.23;89.11
71184;DHT22;58887;51.980;4.464;2023-07-31T04:06:06;17.27;89.07
71184;DHT22;58887;51.980;4.464;2023-07-31T04:08:37;17.33;89.22
71184;DHT22;58887;51.980;4.464;2023-07-31T04:11:04;17.34;89.16
71184;DHT22;58887;51.980;4.464;2023-07-31T04:13:30;17.23;89.34
71184;DHT22;58887;51.980;4.464;2023-07-31T04:15:56;17.26;89.56
71184;DHT22;58887;51.980;4.464;2023-07-31T04:18:24;17.19;89.77
71184;DHT22;58887;51.980;4.464;2023-07-31T04:20:50;17.27;89.53
71184;DHT22;58887;51.980;4.464;2023-07-31T04:23:16;17.23;89.59
71184;DHT22;58887;51.980;4.464;2023-07-31T04:25:44;17.15;89.68
71184;DHT22;58887;51.980;4.464;2023-07-31T04:28:10;17.10;89.68
71184;DHT22;58887;51.980;4.464;2023-07-31T04:30:39;16.99;89.96
71184;DHT22;58887;51.980;4.464;2023-07-31T04:33:06;16.99;89.88
71184;DHT22;58887;51.980;4.464;2023-07-31T04:35:32;16.93;89.99
71184;DHT22;58887;51.980;4.464;2023-07-31T04:37:58;16.86;90.07
71184;DHT22;58887;51.980;4.464;2023-07-31T04:40:26;16.81;90.22
71184;DHT22;58887;51.980;4.464;2023-07-31T04:42:52;16.73;90.54
71184;DHT22;58887;51.980;4.464;2023-07-31T04:45:17;16.69;90.39
71184;DHT22;58887;51.980;4.464;2023-07-31T04:47:43;16.79;90.35
71184;DHT22;58887;51.980;4.464;2023-07-31T04:50:09;16.76;90.26
71184;DHT22;58887;51.980;4.464;2023-07-31T04:52:34;16.73;90.50
71184;DHT22;58887;51.980;4.464;2023-07-31T04:55:00;16.71;90.71
71184;DHT22;58887;51.980;4.464;2023-07-31T04:57:25;16.82;90.52
71184;DHT22;58887;51.980;4.464;2023-07-31T04:59:51;16.86;90.21
71184;DHT22;58887;51.980;4.464;2023-07-31T05:02:16;16.83;90.18
71184;DHT22;58887;51.980;4.464;2023-07-31T05:04:42;16.85;90.19
71184;DHT22;58887;51.980;4.464;2023-07-31T05:07:08;16.83;90.38
71184;DHT22;58887;51.980;4.464;2023-07-31T05:09:35;16.83;90.38
71184;DHT22;58887;51.980;4.464;2023-07-31T05:12:06;16.86;90.42
71184;DHT22;58887;51.980;4.464;2023-07-31T05:14:33;16.88;90.25
71184;DHT22;58887;51.980;4.464;2023-07-31T05:16:58;16.81;90.32
71184;DHT22;58887;51.980;4.464;2023-07-31T05:19:24;16.91;90.32
71184;DHT22;58887;51.980;4.464;2023-07-31T05:21:49;16.88;90.51
71184;DHT22;58887;51.980;4.464;2023-07-31T05:24:15;16.86;90.68
71184;DHT22;58887;51.980;4.464;2023-07-31T05:26:40;16.96;90.43
71184;DHT22;58887;51.980;4.464;2023-07-31T05:29:07;16.89;90.65
71184;DHT22;58887;51.980;4.464;2023-07-31T05:31:32;16.86;90.64
71184;DHT22;58887;51.980;4.464;2023-07-31T05:34:00;16.88;90.58
71184;DHT22;58887;51.980;4.464;2023-07-31T05:36:29;16.89;90.79
71184;DHT22;58887;51.980;4.464;2023-07-31T05:38:55;17.02;90.57
71184;DHT22;58887;51.980;4.464;2023-07-31T05:41:20;16.95;90.60
71184;DHT22;58887;51.980;4.464;2023-07-31T05:44:02;16.93;90.65
71184;DHT22;58887;51.980;4.464;2023-07-31T05:46:32;16.92;90.80
71184;DHT22;58887;51.980;4.464;2023-07-31T05:48:58;16.89;90.89
71184;DHT22;58887;51.980;4.464;2023-07-31T05:51:28;16.89;91.02
71184;DHT22;58887;51.980;4.464;2023-07-31T05:53:54;16.95;91.18
71184;DHT22;58887;51.980;4.464;2023-07-31T05:56:20;17.03;90.95
71184;DHT22;58887;51.980;4.464;2023-07-31T05:58:46;17.05;90.92
71184;DHT22;58887;51.980;4.464;2023-07-31T06:01:11;17.03;90.75
71184;DHT22;58887;51.980;4.464;2023-07-31T06:03:36;17.09;90.84
71184;DHT22;58887;51.980;4.464;2023-07-31T06:06:15;17.12;90.78
71184;DHT22;58887;51.980;4.464;2023-07-31T06:08:45;17.16;90.89
71184;DHT22;58887;51.980;4.464;2023-07-31T06:11:10;17.15;90.88
71184;DHT22;58887;51.980;4.464;2023-07-31T06:13:38;17.10;91.29
71184;DHT22;58887;51.980;4.464;2023-07-31T06:16:03;17.18;91.17
71184;DHT22;58887;51.980;4.464;2023-07-31T06:18:37;17.16;91.24
71184;DHT22;58887;51.980;4.464;2023-07-31T06:21:03;17.20;91.14
71184;DHT22;58887;51.980;4.464;2023-07-31T06:23:28;17.18;90.87
71184;DHT22;58887;51.980;4.464;2023-07-31T06:25:57;17.24;90.91
71184;DHT22;58887;51.980;4.464;2023-07-31T06:28:27;17.22;91.15
71184;DHT22;58887;51.980;4.464;2023-07-31T06:31:00;17.12;91.25
71184;DHT22;58887;51.980;4.464;2023-07-31T06:33:34;17.22;91.41
71184;DHT22;58887;51.980;4.464;2023-07-31T06:36:01;17.20;91.31
71184;DHT22;58887;51.980;4.464;2023-07-31T06:38:28;17.27;91.33
71184;DHT22;58887;51.980;4.464;2023-07-31T06:41:07;17.26;90.88
71184;DHT22;58887;51.980;4.464;2023-07-31T06:43:33;17.34;91.19
71184;DHT22;58887;51.980;4.464;2023-07-31T06:46:05;17.33;91.10
71184;DHT22;58887;51.980;4.464;2023-07-31T06:48:40;17.34;91.13
71184;DHT22;58887;51.980;4.464;2023-07-31T06:51:07;17.44;91.10
71184;DHT22;58887;51.980;4.464;2023-07-31T06:53:40;17.44;91.00
71184;DHT22;58887;51.980;4.464;2023-07-31T06:56:06;17.46;90.93
71184;DHT22;58887;51.980;4.464;2023-07-31T06:58:32;17.43;90.87
71184;DHT22;58887;51.980;4.464;2023-07-31T07:00:58;17.50;91.08
71184;DHT22;58887;51.980;4.464;2023-07-31T07:03:24;17.50;90.84
71184;DHT22;58887;51.980;4.464;2023-07-31T07:05:49;17.46;91.23
71184;DHT22;58887;51.980;4.464;2023-07-31T07:08:16;17.49;91.28
71184;DHT22;58887;51.980;4.464;2023-07-31T07:10:46;17.54;90.85
71184;DHT22;58887;51.980;4.464;2023-07-31T07:13:12;17.59;91.16
71184;DHT22;58887;51.980;4.464;2023-07-31T07:15:40;17.69;90.91
71184;DHT22;58887;51.980;4.464;2023-07-31T07:18:07;17.61;90.74
71184;DHT22;58887;51.980;4.464;2023-07-31T07:20:32;17.61;90.89
71184;DHT22;58887;51.980;4.464;2023-07-31T07:22:59;17.51;91.14
71184;DHT22;58887;51.980;4.464;2023-07-31T07:25:24;17.61;90.96
71184;DHT22;58887;51.980;4.464;2023-07-31T07:27:49;17.64;90.91
71184;DHT22;58887;51.980;4.464;2023-07-31T07:30:15;17.55;91.32
71184;DHT22;58887;51.980;4.464;2023-07-31T07:32:42;17.77;90.97
71184;DHT22;58887;51.980;4.464;2023-07-31T07:35:07;17.81;90.91
71184;DHT22;58887;51.980;4.464;2023-07-31T07:37:33;17.87;90.72
71184;DHT22;58887;51.980;4.464;2023-07-31T07:39:59;17.90;90.57
71184;DHT22;58887;51.980;4.464;2023-07-31T07:42:25;17.94;90.65
71184;DHT22;58887;51.980;4.464;2023-07-31T07:44:57;17.88;90.71
71184;DHT22;58887;51.980;4.464;2023-07-31T07:47:24;18.01;90.54
71184;DHT22;58887;51.980;4.464;2023-07-31T07:49:49;17.95;90.63
71184;DHT22;58887;51.980;4.464;2023-07-31T07:52:16;18.12;90.62
71184;DHT22;58887;51.980;4.464;2023-07-31T07:54:42;18.11;90.55
71184;DHT22;58887;51.980;4.464;2023-07-31T07:57:09;18.06;90.80
71184;DHT22;58887;51.980;4.464;2023-07-31T07:59:35;18.02;90.51
71184;DHT22;58887;51.980;4.464;2023-07-31T08:02:03;17.98;90.66
71184;DHT22;58887;51.980;4.464;2023-07-31T08:04:28;17.94;91.09
71184;DHT22;58887;51.980;4.464;2023-07-31T08:06:55;17.92;91.10
71184;DHT22;58887;51.980;4.464;2023-07-31T08:09:21;18.01;90.74
71184;DHT22;58887;51.980;4.464;2023-07-31T08:11:49;17.88;91.02
71184;DHT22;58887;51.980;4.464;2023-07-31T08:14:20;18.00;90.94
71184;DHT22;58887;51.980;4.464;2023-07-31T08:16:46;17.88;91.17
71184;DHT22;58887;51.980;4.464;2023-07-31T08:19:11;17.91;91.12
71184;DHT22;58887;51.980;4.464;2023-07-31T08:21:37;18.00;91.07
71184;DHT22;58887;51.980;4.464;2023-07-31T08:24:08;18.05;90.64
71184;DHT22;58887;51.980;4.464;2023-07-31T08:26:42;17.98;91.14
71184;DHT22;58887;51.980;4.464;2023-07-31T08:29:08;18.01;91.05
71184;DHT22;58887;51.980;4.464;2023-07-31T08:31:34;18.04;91.12
71184;DHT22;58887;51.980;4.464;2023-07-31T08:34:00;18.09;90.87
71184;DHT22;58887;51.980;4.464;2023-07-31T08:36:35;18.01;91.18
71184;DHT22;58887;51.980;4.464;2023-07-31T08:39:03;18.21;91.00
71184;DHT22;58887;51.980;4.464;2023-07-31T08:41:29;18.28;90.80
71184;DHT22;58887;51.980;4.464;2023-07-31T08:44:07;18.35;90.58
71184;DHT22;58887;51.980;4.464;2023-07-31T08:46:35;18.39;90.27
71184;DHT22;58887;51.980;4.464;2023-07-31T08:49:04;18.18;90.49
71184;DHT22;58887;51.980;4.464;2023-07-31T08:51:35;18.16;90.56
71184;DHT22;58887;51.980;4.464;2023-07-31T08:54:03;18.21;90.69
71184;DHT22;58887;51.980;4.464;2023-07-31T08:56:36;18.29;90.34
71184;DHT22;58887;51.980;4.464;2023-07-31T08:59:15;18.30;90.52
71184;DHT22;58887;51.980;4.464;2023-07-31T09:01:52;18.22;90.61
71184;DHT22;58887;51.980;4.464;2023-07-31T09:04:19;18.24;90.55
71184;DHT22;58887;51.980;4.464;2023-07-31T09:06:57;18.25;90.48
71184;DHT22;58887;51.980;4.464;2023-07-31T09:09:25;18.39;90.34
71184;DHT22;58887;51.980;4.464;2023-07-31T09:11:52;18.38;90.23
71184;DHT22;58887;51.980;4.464;2023-07-31T09:14:25;18.48;90.24
71184;DHT22;58887;51.980;4.464;2023-07-31T09:16:58;18.49;90.14
71184;DHT22;58887;51.980;4.464;2023-07-31T09:19:32;18.43;90.50
71184;DHT22;58887;51.980;4.464;2023-07-31T09:21:59;18.59;90.33
71184;DHT22;58887;51.980;4.464;2023-07-31T09:24:38;18.55;89.93
71184;DHT22;58887;51.980;4.464;2023-07-31T09:27:06;18.55;90.04
71184;DHT22;58887;51.980;4.464;2023-07-31T09:29:36;18.53;90.04
71184;DHT22;58887;51.980;4.464;2023-07-31T09:32:18;18.49;90.17
71184;DHT22;58887;51.980;4.464;2023-07-31T09:34:49;18.43;90.22
71184;DHT22;58887;51.980;4.464;2023-07-31T09:37:14;18.43;90.25
71184;DHT22;58887;51.980;4.464;2023-07-31T09:39:57;18.48;90.13
71184;DHT22;58887;51.980;4.464;2023-07-31T09:42:35;18.50;90.13
71184;DHT22;58887;51.980;4.464;2023-07-31T09:45:08;18.61;90.15
71184;DHT22;58887;51.980;4.464;2023-07-31T09:47:46;18.57;89.77
71184;DHT22;58887;51.980;4.464;2023-07-31T09:50:15;18.50;89.90
71184;DHT22;58887;51.980;4.464;2023-07-31T09:52:48;18.45;90.17
71184;DHT22;58887;51.980;4.464;2023-07-31T09:55:24;18.59;89.88
71184;DHT22;58887;51.980;4.464;2023-07-31T09:58:09;18.64;89.57
71184;DHT22;58887;51.980;4.464;2023-07-31T10:00:50;18.91;89.18
71184;DHT22;58887;51.980;4.464;2023-07-31T10:03:31;19.06;88.99
71184;DHT22;58887;51.980;4.464;2023-07-31T10:06:01;19.15;88.89
71184;DHT22;58887;51.980;4.464;2023-07-31T10:08:30;19.10;88.87
71184;DHT22;58887;51.980;4.464;2023-07-31T10:11:01;18.96;88.85
71184;DHT22;58887;51.980;4.464;2023-07-31T10:13:28;19.04;88.90
71184;DHT22;58887;51.980;4.464;2023-07-31T10:15:59;19.10;88.64
71184;DHT22;58887;51.980;4.464;2023-07-31T10:18:28;19.14;88.62
71184;DHT22;58887;51.980;4.464;2023-07-31T10:21:02;19.35;88.21
71184;DHT22;58887;51.980;4.464;2023-07-31T10:23:28;19.28;88.04
71184;DHT22;58887;51.980;4.464;2023-07-31T10:25:55;19.24;87.98
71184;DHT22;58887;51.980;4.464;2023-07-31T10:28:32;19.15;88.12
71184;DHT22;58887;51.980;4.464;2023-07-31T10:31:01;19.24;87.92
71184;DHT22;58887;51.980;4.464;2023-07-31T10:33:58;19.38;88.27
71184;DHT22;58887;51.980;4.464;2023-07-31T10:36:28;19.25;88.11
71184;DHT22;58887;51.980;4.464;2023-07-31T10:38:55;19.31;88.19
71184;DHT22;58887;51.980;4.464;2023-07-31T10:41:33;19.19;87.86
71184;DHT22;58887;51.980;4.464;2023-07-31T10:44:13;19.28;87.56
71184;DHT22;58887;51.980;4.464;2023-07-31T10:46:39;19.29;87.52
71184;DHT22;58887;51.980;4.464;2023-07-31T10:49:05;19.39;87.68
71184;DHT22;58887;51.980;4.464;2023-07-31T10:51:35;19.48;87.00
71184;DHT22;58887;51.980;4.464;2023-07-31T10:54:15;19.55;86.78
71184;DHT22;58887;51.980;4.464;2023-07-31T10:56:50;19.56;86.70
71184;DHT22;58887;51.980;4.464;2023-07-31T10:59:18;19.52;87.12
71184;DHT22;58887;51.980;4.464;2023-07-31T11:01:56;19.34;87.45
71184;DHT22;58887;51.980;4.464;2023-07-31T11:04:26;19.27;87.46
71184;DHT22;58887;51.980;4.464;2023-07-31T11:07:01;19.48;87.06
71184;DHT22;58887;51.980;4.464;2023-07-31T11:09:38;19.58;86.98
71184;DHT22;58887;51.980;4.464;2023-07-31T11:12:05;19.78;86.54
71184;DHT22;58887;51.980;4.464;2023-07-31T11:14:34;19.68;86.56
71184;DHT22;58887;51.980;4.464;2023-07-31T11:17:06;19.58;87.19
71184;DHT22;58887;51.980;4.464;2023-07-31T11:19:37;19.58;87.35
71184;DHT22;58887;51.980;4.464;2023-07-31T11:22:03;19.54;87.62
71184;DHT22;58887;51.980;4.464;2023-07-31T11:24:37;19.69;87.08
71184;DHT22;58887;51.980;4.464;2023-07-31T11:27:27;19.83;87.18
71184;DHT22;58887;51.980;4.464;2023-07-31T11:29:53;19.83;87.10
71184;DHT22;58887;51.980;4.464;2023-07-31T11:32:18;19.70;87.20
71184;DHT22;58887;51.980;4.464;2023-07-31T11:34:59;19.80;86.80
71184;DHT22;58887;51.980;4.464;2023-07-31T11:37:39;19.80;86.67
71184;DHT22;58887;51.980;4.464;2023-07-31T11:40:06;19.65;86.54
71184;DHT22;58887;51.980;4.464;2023-07-31T11:42:39;19.86;86.48
71184;DHT22;58887;51.980;4.464;2023-07-31T11:45:08;19.80;86.19
71184;DHT22;58887;51.980;4.464;2023-07-31T11:47:41;19.86;86.49
71184;DHT22;58887;51.980;4.464;2023-07-31T11:50:10;19.79;86.27
71184;DHT22;58887;51.980;4.464;2023-07-31T11:52:41;19.85;85.59
71184;DHT22;58887;51.980;4.464;2023-07-31T11:55:21;19.80;85.46
71184;DHT22;58887;51.980;4.464;2023-07-31T11:57:50;19.70;85.81
71184;DHT22;58887;51.980;4.464;2023-07-31T12:00:17;19.86;86.11
71184;DHT22;58887;51.980;4.464;2023-07-31T12:02:44;19.73;86.07
71184;DHT22;58887;51.980;4.464;2023-07-31T12:05:16;19.85;86.42
71184;DHT22;58887;51.980;4.464;2023-07-31T12:07:57;20.21;85.65
71184;DHT22;58887;51.980;4.464;2023-07-31T12:10:30;20.20;84.89
71184;DHT22;58887;51.980;4.464;2023-07-31T12:13:08;20.21;84.59
71184;DHT22;58887;51.980;4.464;2023-07-31T12:15:44;20.09;84.99
71184;DHT22;58887;51.980;4.464;2023-07-31T12:18:19;20.03;85.64
71184;DHT22;58887;51.980;4.464;2023-07-31T12:20:58;20.07;85.42
71184;DHT22;58887;51.980;4.464;2023-07-31T12:23:33;20.05;85.33
71184;DHT22;58887;51.980;4.464;2023-07-31T12:26:12;19.99;85.69
71184;DHT22;58887;51.980;4.464;2023-07-31T12:28:54;19.80;86.16
71184;DHT22;58887;51.980;4.464;2023-07-31T12:31:34;19.73;86.74
71184;DHT22;58887;51.980;4.464;2023-07-31T12:34:20;19.90;86.39
71184;DHT22;58887;51.980;4.464;2023-07-31T12:36:53;19.99;86.80
71184;DHT22;58887;51.980;4.464;2023-07-31T12:39:34;19.93;86.32
71184;DHT22;58887;51.980;4.464;2023-07-31T12:42:03;19.87;86.42
71184;DHT22;58887;51.980;4.464;2023-07-31T12:44:37;19.82;86.63
71184;DHT22;58887;51.980;4.464;2023-07-31T12:47:03;19.82;86.28
71184;DHT22;58887;51.980;4.464;2023-07-31T12:49:29;19.87;86.71
71184;DHT22;58887;51.980;4.464;2023-07-31T12:51:54;19.92;86.33
71184;DHT22;58887;51.980;4.464;2023-07-31T12:54:32;19.61;87.42
71184;DHT22;58887;51.980;4.464;2023-07-31T12:57:00;19.48;87.33
71184;DHT22;58887;51.980;4.464;2023-07-31T12:59:40;19.51;88.03
71184;DHT22;58887;51.980;4.464;2023-07-31T13:02:23;19.41;88.65
71184;DHT22;58887;51.980;4.464;2023-07-31T13:04:50;19.47;88.41
71184;DHT22;58887;51.980;4.464;2023-07-31T13:07:20;19.55;87.65
71184;DHT22;58887;51.980;4.464;2023-07-31T13:09:53;19.63;87.45
71184;DHT22;58887;51.980;4.464;2023-07-31T13:12:32;19.86;87.56
71184;DHT22;58887;51.980;4.464;2023-07-31T13:15:07;19.96;86.84
71184;DHT22;58887;51.980;4.464;2023-07-31T13:17:35;19.86;86.91
71184;DHT22;58887;51.980;4.464;2023-07-31T13:20:16;19.82;86.79
71184;DHT22;58887;51.980;4.464;2023-07-31T13:22:47;19.96;86.64
71184;DHT22;58887;51.980;4.464;2023-07-31T13:25:14;19.86;86.44
71184;DHT22;58887;51.980;4.464;2023-07-31T13:27:40;19.90;86.53
71184;DHT22;58887;51.980;4.464;2023-07-31T13:30:08;19.89;86.81
71184;DHT22;58887;51.980;4.464;2023-07-31T13:32:34;19.85;87.22
71184;DHT22;58887;51.980;4.464;2023-07-31T13:35:07;19.83;86.43
71184;DHT22;58887;51.980;4.464;2023-07-31T13:37:39;19.79;87.23
71184;DHT22;58887;51.980;4.464;2023-07-31T13:40:10;19.79;87.00
71184;DHT22;58887;51.980;4.464;2023-07-31T13:42:35;19.66;87.56
71184;DHT22;58887;51.980;4.464;2023-07-31T13:45:03;19.63;88.23
71184;DHT22;58887;51.980;4.464;2023-07-31T13:47:34;19.70;88.19
71184;DHT22;58887;51.980;4.464;2023-07-31T13:50:04;19.80;88.42
71184;DHT22;58887;51.980;4.464;2023-07-31T13:52:31;19.85;88.40
71184;DHT22;58887;51.980;4.464;2023-07-31T13:55:16;19.80;88.16
71184;DHT22;58887;51.980;4.464;2023-07-31T13:57:41;19.69;88.55
71184;DHT22;58887;51.980;4.464;2023-07-31T14:00:08;19.73;88.61
71184;DHT22;58887;51.980;4.464;2023-07-31T14:02:36;19.72;88.32
71184;DHT22;58887;51.980;4.464;2023-07-31T14:05:01;19.62;88.22
71184;DHT22;58887;51.980;4.464;2023-07-31T14:07:36;19.61;88.35
71184;DHT22;58887;51.980;4.464;2023-07-31T14:10:01;19.63;88.33
71184;DHT22;58887;51.980;4.464;2023-07-31T14:12:44;19.49;88.50
71184;DHT22;58887;51.980;4.464;2023-07-31T14:15:21;19.59;88.58
71184;DHT22;58887;51.980;4.464;2023-07-31T14:17:52;19.72;88.22
71184;DHT22;58887;51.980;4.464;2023-07-31T14:20:35;19.54;88.03
71184;DHT22;58887;51.980;4.464;2023-07-31T14:23:01;19.62;87.94
71184;DHT22;58887;51.980;4.464;2023-07-31T14:25:29;19.52;88.33
71184;DHT22;58887;51.980;4.464;2023-07-31T14:27:54;19.63;88.23
71184;DHT22;58887;51.980;4.464;2023-07-31T14:30:30;19.68;88.47
71184;DHT22;58887;51.980;4.464;2023-07-31T14:32:57;19.55;88.38
71184;DHT22;58887;51.980;4.464;2023-07-31T14:35:29;19.58;88.71
71184;DHT22;58887;51.980;4.464;2023-07-31T14:37:56;19.52;88.68
71184;DHT22;58887;51.980;4.464;2023-07-31T14:40:32;19.51;88.48
71184;DHT22;58887;51.980;4.464;2023-07-31T14:42:57;19.42;89.19
71184;DHT22;58887;51.980;4.464;2023-07-31T14:45:24;19.45;89.32
71184;DHT22;58887;51.980;4.464;2023-07-31T14:48:01;19.45;89.55
71184;DHT22;58887;51.980;4.464;2023-07-31T14:50:29;19.31;89.86
71184;DHT22;58887;51.980;4.464;2023-07-31T14:52:54;19.29;90.03
71184;DHT22;58887;51.980;4.464;2023-07-31T14:55:22;19.36;89.95
71184;DHT22;58887;51.980;4.464;2023-07-31T14:57:50;19.21;90.06
71184;DHT22;58887;51.980;4.464;2023-07-31T15:00:17;19.11;89.74
71184;DHT22;58887;51.980;4.464;2023-07-31T15:02:43;19.01;89.99
71184;DHT22;58887;51.980;4.464;2023-07-31T15:05:08;18.93;89.84
71184;DHT22;58887;51.980;4.464;2023-07-31T15:07:43;18.91;90.24
71184;DHT22;58887;51.980;4.464;2023-07-31T15:10:19;18.96;90.20
71184;DHT22;58887;51.980;4.464;2023-07-31T15:12:52;19.07;90.15
71184;DHT22;58887;51.980;4.464;2023-07-31T15:15:27;19.03;89.94
71184;DHT22;58887;51.980;4.464;2023-07-31T15:17:53;18.94;89.72
71184;DHT22;58887;51.980;4.464;2023-07-31T15:20:26;18.89;90.15
71184;DHT22;58887;51.980;4.464;2023-07-31T15:22:55;18.87;90.38
71184;DHT22;58887;51.980;4.464;2023-07-31T15:25:38;18.87;90.26
71184;DHT22;58887;51.980;4.464;2023-07-31T15:28:29;18.90;90.15
71184;DHT22;58887;51.980;4.464;2023-07-31T15:31:14;18.81;90.38
71184;DHT22;58887;51.980;4.464;2023-07-31T15:33:46;18.86;90.62
71184;DHT22;58887;51.980;4.464;2023-07-31T15:36:17;18.93;90.46
71184;DHT22;58887;51.980;4.464;2023-07-31T15:38:49;18.97;90.02
71184;DHT22;58887;51.980;4.464;2023-07-31T15:41:43;18.86;90.27
71184;DHT22;58887;51.980;4.464;2023-07-31T15:44:15;18.74;90.37
71184;DHT22;58887;51.980;4.464;2023-07-31T15:46:47;18.74;90.46
71184;DHT22;58887;51.980;4.464;2023-07-31T15:49:14;18.77;90.64
71184;DHT22;58887;51.980;4.464;2023-07-31T15:51:42;18.81;90.27
71184;DHT22;58887;51.980;4.464;2023-07-31T15:54:38;18.84;90.05